createdAt,value
2022-09-06T00:00:31.578Z,10.60
2022-09-06T00:02:59.770Z,8.10
2022-09-06T00:05:28.288Z,11.10
2022-09-06T00:07:56.914Z,12.70
2022-09-06T00:10:24.994Z,10.60
2022-09-06T00:12:53.317Z,8.60
2022-09-06T00:15:22.346Z,11.40
2022-09-06T00:17:51.789Z,12.43
2022-09-06T00:20:19.870Z,15.93
2022-09-06T00:22:47.987Z,10.53
2022-09-06T00:25:16.239Z,10.77
2022-09-06T00:27:44.329Z,13.40
2022-09-06T00:30:13.895Z,10.23
2022-09-06T00:32:42.224Z,10.97
2022-09-06T00:35:11.679Z,8.37
2022-09-06T00:37:39.801Z,10.87
2022-09-06T00:40:09.923Z,11.30
2022-09-06T00:42:38.204Z,12.93
2022-09-06T00:45:08.719Z,10.73
2022-09-06T00:47:39.760Z,9.37
2022-09-06T00:50:12.569Z,11.73
2022-09-06T00:52:42.142Z,10.73
2022-09-06T00:55:10.927Z,11.43
2022-09-06T00:57:40.002Z,8.30
2022-09-06T01:00:10.644Z,11.47
2022-09-06T01:02:38.835Z,9.43
2022-09-06T01:05:08.316Z,7.80
2022-09-06T01:08:00.465Z,13.27
2022-09-06T01:10:52.410Z,7.70
2022-09-06T01:13:34.231Z,8.57
2022-09-06T01:16:14.453Z,10.33
2022-09-06T01:19:17.330Z,10.20
2022-09-06T01:21:52.427Z,8.67
2022-09-06T01:25:08.120Z,9.60
2022-09-06T01:28:31.325Z,14.50
2022-09-06T01:31:19.293Z,14.47
2022-09-06T01:33:55.624Z,9.83
2022-09-06T01:36:28.741Z,14.53
2022-09-06T01:38:56.876Z,15.50
2022-09-06T01:41:25.247Z,13.27
2022-09-06T01:43:56.304Z,9.40
2022-09-06T01:46:35.186Z,8.63
2022-09-06T01:49:27.619Z,7.77
2022-09-06T01:52:09.244Z,7.40
2022-09-06T01:54:55.501Z,8.33
2022-09-06T01:57:36.987Z,7.87
2022-09-06T02:00:10.606Z,7.87
2022-09-06T02:02:52.306Z,9.33
2022-09-06T02:05:28.928Z,9.97
2022-09-06T02:08:02.111Z,8.00
2022-09-06T02:10:37.781Z,10.77
2022-09-06T02:13:09.619Z,9.20
2022-09-06T02:15:44.450Z,9.00
2022-09-06T02:18:18.946Z,9.07
2022-09-06T02:20:51.917Z,7.77
2022-09-06T02:23:23.340Z,9.07
2022-09-06T02:25:55.261Z,14.00
2022-09-06T02:28:23.749Z,25.03
2022-09-06T02:30:59.291Z,31.03
2022-09-06T02:33:33.498Z,17.90
2022-09-06T02:36:07.334Z,17.63
2022-09-06T02:38:39.431Z,12.10
2022-09-06T02:41:10.442Z,21.87
2022-09-06T02:43:38.594Z,23.63
2022-09-06T02:46:08.306Z,29.47
2022-09-06T02:48:36.509Z,28.07
2022-09-06T02:51:05.508Z,24.33
2022-09-06T02:53:33.985Z,17.57
2022-09-06T02:56:02.351Z,27.10
2022-09-06T02:58:30.572Z,15.03
2022-09-06T03:00:58.794Z,14.03
2022-09-06T03:03:28.680Z,20.10
2022-09-06T03:05:57.319Z,31.10
2022-09-06T03:08:26.682Z,21.50
2022-09-06T03:10:57.625Z,14.80
2022-09-06T03:13:26.859Z,22.57
2022-09-06T03:15:57.156Z,15.70
2022-09-06T03:18:27.979Z,19.23
2022-09-06T03:20:57.151Z,16.97
2022-09-06T03:23:27.777Z,17.70
2022-09-06T03:25:57.156Z,14.80
2022-09-06T03:28:25.862Z,16.17
2022-09-06T03:30:54.462Z,17.03
2022-09-06T03:33:22.873Z,15.93
2022-09-06T03:35:55.477Z,17.87
2022-09-06T03:38:25.361Z,17.90
2022-09-06T03:40:53.860Z,20.00
2022-09-06T03:43:24.440Z,18.30
2022-09-06T03:45:57.370Z,15.63
2022-09-06T03:48:28.274Z,17.43
2022-09-06T03:50:59.755Z,22.37
2022-09-06T03:53:29.586Z,22.60
2022-09-06T03:56:01.441Z,23.43
2022-09-06T03:58:32.480Z,20.87
2022-09-06T04:01:06.502Z,16.87
2022-09-06T04:03:35.125Z,21.90
2022-09-06T04:06:06.453Z,24.10
2022-09-06T04:08:36.133Z,32.87
2022-09-06T04:11:05.257Z,18.33
2022-09-06T04:13:34.868Z,16.23
2022-09-06T04:16:03.795Z,27.73
2022-09-06T04:18:32.386Z,30.60
2022-09-06T04:21:00.619Z,17.90
2022-09-06T04:23:31.153Z,13.30
2022-09-06T04:26:02.246Z,11.53
2022-09-06T04:28:30.412Z,11.70
2022-09-06T04:31:04.259Z,13.27
2022-09-06T04:33:34.773Z,25.30
2022-09-06T04:36:05.246Z,26.17
2022-09-06T04:38:38.200Z,27.60
2022-09-06T04:41:07.281Z,25.40
2022-09-06T04:43:35.433Z,17.93
2022-09-06T04:46:08.424Z,13.17
2022-09-06T04:48:36.575Z,13.93
2022-09-06T04:51:04.741Z,13.97
2022-09-06T04:53:34.271Z,18.37
2022-09-06T04:56:02.643Z,47.57
2022-09-06T04:58:30.845Z,44.17
2022-09-06T05:00:59.043Z,39.70
2022-09-06T05:03:27.280Z,26.83
2022-09-06T05:06:06.898Z,18.30
2022-09-06T05:08:39.220Z,13.17
2022-09-06T05:11:07.657Z,13.10
2022-09-06T05:13:36.581Z,12.83
2022-09-06T05:16:08.394Z,19.90
2022-09-06T05:18:37.289Z,14.47
2022-09-06T05:21:07.607Z,13.90
2022-09-06T05:23:37.178Z,14.97
2022-09-06T05:26:06.227Z,15.63
2022-09-06T05:28:34.681Z,29.43
2022-09-06T05:31:11.112Z,35.67
2022-09-06T05:33:39.892Z,55.33
2022-09-06T05:36:09.271Z,38.33
2022-09-06T05:38:38.684Z,26.53
2022-09-06T05:41:06.936Z,24.20
2022-09-06T05:43:35.227Z,18.87
2022-09-06T05:46:03.438Z,17.67
2022-09-06T05:48:36.599Z,19.07
2022-09-06T05:51:07.986Z,15.53
2022-09-06T05:53:40.565Z,15.40
2022-09-06T05:56:09.918Z,14.43
2022-09-06T05:58:38.999Z,15.47
2022-09-06T06:01:09.926Z,15.20
2022-09-06T06:03:39.156Z,14.30
2022-09-06T06:06:08.582Z,15.00
2022-09-06T06:08:38.428Z,15.00
2022-09-06T06:11:06.892Z,15.27
2022-09-06T06:13:39.561Z,16.83
2022-09-06T06:16:08.589Z,15.63
2022-09-06T06:18:37.145Z,14.73
2022-09-06T06:21:16.530Z,18.63
2022-09-06T06:23:47.841Z,32.40
2022-09-06T06:26:16.285Z,36.53
2022-09-06T06:28:44.468Z,21.83
2022-09-06T06:31:13.464Z,23.93
2022-09-06T06:33:42.579Z,26.00
2022-09-06T06:36:22.555Z,19.73
2022-09-06T06:38:55.243Z,19.37
2022-09-06T06:41:25.593Z,22.07
2022-09-06T06:43:54.835Z,35.97
2022-09-06T06:46:24.997Z,40.67
2022-09-06T06:48:55.176Z,32.47
2022-09-06T06:51:25.429Z,61.37
2022-09-06T06:53:56.781Z,31.80
2022-09-06T06:56:27.365Z,87.90
2022-09-06T06:58:58.300Z,50.63
2022-09-06T07:01:29.602Z,48.30
2022-09-06T07:03:58.313Z,60.30
2022-09-06T07:09:19.165Z,86.57
2022-09-06T07:11:48.763Z,45.37
2022-09-06T07:14:17.100Z,29.10
2022-09-06T07:16:45.654Z,18.00
2022-09-06T07:22:04.585Z,17.00
2022-09-06T07:24:35.449Z,19.37
2022-09-06T07:29:51.682Z,16.97
2022-09-06T07:32:19.811Z,16.80
2022-09-06T07:34:48.219Z,22.03
2022-09-06T07:37:16.962Z,18.63
2022-09-06T07:39:46.479Z,17.77
2022-09-06T07:42:16.156Z,17.53
2022-09-06T07:44:44.252Z,17.03
2022-09-06T07:53:07.248Z,18.00
2022-09-06T07:55:37.718Z,16.73
2022-09-06T07:58:05.841Z,18.10
2022-09-06T08:00:34.016Z,36.87
2022-09-06T08:03:02.159Z,42.73
2022-09-06T08:11:08.577Z,41.87
2022-09-06T08:13:37.656Z,37.47
2022-09-06T08:16:08.368Z,28.40
2022-09-06T08:18:37.466Z,27.20
2022-09-06T08:21:12.612Z,27.47
2022-09-06T08:23:43.684Z,26.60
2022-09-06T08:26:13.152Z,28.80
2022-09-06T08:28:41.251Z,24.25
2022-09-06T08:31:12.434Z,32.28
2022-09-06T08:33:42.156Z,21.00
2022-09-06T08:36:11.672Z,19.15
2022-09-06T08:38:43.012Z,18.10
2022-09-06T08:41:21.816Z,17.50
2022-09-06T08:46:54.529Z,17.65
2022-09-06T08:49:23.073Z,18.23
2022-09-06T08:52:08.741Z,18.02
2022-09-06T08:54:41.786Z,19.05
2022-09-06T08:57:26.724Z,18.23
2022-09-06T08:59:59.826Z,23.10
2022-09-06T09:02:29.252Z,22.10
2022-09-06T09:05:04.285Z,26.85
2022-09-06T09:07:44.142Z,22.85
2022-09-06T09:10:18.294Z,33.05
2022-09-06T09:12:49.963Z,18.90
2022-09-06T09:15:23.898Z,18.08
2022-09-06T09:17:54.601Z,21.80
2022-09-06T09:20:23.744Z,17.60
2022-09-06T09:22:51.868Z,18.13
2022-09-06T09:25:24.319Z,18.00
2022-09-06T09:27:57.816Z,17.77
2022-09-06T09:33:25.726Z,16.25
2022-09-06T09:35:54.512Z,15.48
2022-09-06T09:38:27.169Z,15.10
2022-09-06T09:40:57.328Z,15.27
2022-09-06T09:43:31.311Z,14.52
2022-09-06T09:46:16.657Z,15.43
2022-09-06T09:49:02.145Z,15.10
2022-09-06T09:51:32.241Z,16.45
2022-09-06T09:54:03.713Z,16.80
2022-09-06T09:56:40.358Z,14.93
2022-09-06T09:59:22.638Z,20.40
2022-09-06T10:01:53.716Z,19.48
2022-09-06T10:04:45.966Z,17.55
2022-09-06T10:07:17.817Z,16.25
2022-09-06T10:09:49.080Z,14.85
2022-09-06T10:12:20.034Z,21.58
2022-09-06T10:14:52.154Z,15.82
2022-09-06T10:17:25.110Z,14.50
2022-09-06T10:19:53.434Z,14.98
2022-09-06T10:22:30.875Z,14.35
2022-09-06T10:25:29.431Z,13.80
2022-09-06T10:28:31.197Z,17.15
2022-09-06T10:31:35.033Z,14.95
2022-09-06T10:34:28.105Z,14.52
2022-09-06T10:37:09.504Z,20.15
2022-09-06T10:39:49.765Z,14.85
2022-09-06T10:42:30.697Z,17.15
2022-09-06T10:45:38.928Z,16.27
2022-09-06T10:48:15.016Z,13.85
2022-09-06T10:50:53.085Z,11.57
2022-09-06T10:53:40.026Z,13.50
2022-09-06T10:56:12.780Z,18.05
2022-09-06T11:01:42.542Z,13.13
2022-09-06T11:04:23.932Z,14.77
2022-09-06T11:06:58.077Z,14.05
2022-09-06T11:09:34.951Z,12.15
2022-09-06T11:12:09.425Z,11.05
2022-09-06T11:14:39.015Z,11.40
2022-09-06T11:17:13.253Z,11.07
2022-09-06T11:19:49.565Z,10.32
2022-09-06T11:22:43.526Z,13.77
2022-09-06T11:25:49.815Z,10.98
2022-09-06T11:28:27.586Z,10.57
2022-09-06T11:30:58.674Z,10.90
2022-09-06T11:33:29.396Z,11.15
2022-09-06T11:36:20.090Z,14.00
2022-09-06T11:39:00.541Z,11.65
2022-09-06T11:41:33.124Z,10.88
2022-09-06T11:44:01.670Z,9.88
2022-09-06T11:47:01.539Z,11.38
2022-09-06T11:49:40.017Z,10.43
2022-09-06T11:53:03.176Z,9.30
2022-09-06T11:55:37.839Z,9.73
2022-09-06T11:58:12.250Z,9.80
2022-09-06T12:00:40.332Z,12.60
2022-09-06T12:06:20.175Z,9.95
2022-09-06T12:08:52.678Z,23.83
2022-09-06T12:11:37.465Z,9.93
2022-09-06T12:14:11.063Z,19.60
2022-09-06T12:17:28.825Z,14.57
2022-09-06T12:20:08.790Z,10.18
2022-09-06T12:22:55.257Z,9.95
2022-09-06T12:25:58.523Z,9.02
2022-09-06T12:28:49.812Z,10.57
2022-09-06T12:31:34.273Z,8.73
2022-09-06T12:34:11.025Z,11.00
2022-09-06T12:36:50.876Z,12.23
2022-09-06T12:39:21.256Z,8.02
2022-09-06T12:41:55.001Z,7.63
2022-09-06T12:44:33.554Z,8.43
2022-09-06T12:47:08.171Z,7.60
2022-09-06T12:49:36.343Z,7.10
2022-09-06T12:52:10.401Z,6.63
2022-09-06T12:54:50.377Z,6.72
2022-09-06T12:57:25.998Z,7.05
2022-09-06T12:59:56.423Z,5.68
2022-09-06T13:02:35.881Z,6.13
2022-09-06T13:05:07.018Z,5.95
2022-09-06T13:07:44.545Z,5.05
2022-09-06T13:10:15.094Z,5.07
2022-09-06T13:12:48.960Z,5.15
2022-09-06T13:15:21.841Z,4.95
2022-09-06T13:17:50.580Z,4.97
2022-09-06T13:20:28.116Z,4.90
2022-09-06T13:23:10.386Z,6.55
2022-09-06T13:25:49.445Z,5.50
2022-09-06T13:28:29.539Z,4.63
2022-09-06T13:31:09.049Z,6.78
2022-09-06T13:33:38.706Z,6.53
2022-09-06T13:36:25.154Z,5.68
2022-09-06T13:38:53.595Z,3.35
2022-09-06T13:41:44.406Z,4.93
2022-09-06T13:44:31.577Z,3.47
2022-09-06T13:47:00.285Z,3.42
2022-09-06T13:49:29.233Z,4.15
2022-09-06T13:52:01.954Z,5.22
2022-09-06T13:54:31.291Z,3.20
2022-09-06T13:57:00.556Z,3.88
2022-09-06T13:59:31.602Z,4.57
2022-09-06T14:02:03.669Z,4.05
2022-09-06T14:04:32.552Z,3.72
2022-09-06T14:07:01.078Z,3.63
2022-09-06T14:09:29.289Z,4.05
2022-09-06T14:11:58.160Z,3.88
2022-09-06T14:14:26.649Z,2.70
2022-09-06T14:16:56.991Z,2.97
2022-09-06T14:19:25.178Z,3.28
2022-09-06T14:21:53.470Z,4.20
2022-09-06T14:24:21.850Z,2.75
2022-09-06T14:26:49.989Z,4.03
2022-09-06T14:29:18.093Z,4.30
2022-09-06T14:31:48.285Z,2.60
2022-09-06T14:34:17.799Z,3.42
2022-09-06T14:36:45.845Z,5.40
2022-09-06T14:39:14.287Z,4.30
2022-09-06T14:41:42.385Z,3.30
2022-09-06T14:44:10.651Z,3.53
2022-09-06T14:46:38.806Z,4.10
2022-09-06T14:49:09.958Z,3.97
2022-09-06T14:51:39.856Z,4.18
2022-09-06T14:54:11.601Z,4.40
2022-09-06T14:56:41.835Z,6.10
2022-09-06T14:59:10.582Z,3.95
2022-09-06T15:01:40.667Z,4.28
2022-09-06T15:04:11.740Z,3.85
2022-09-06T15:06:47.209Z,3.80
2022-09-06T15:09:15.879Z,4.70
2022-09-06T15:11:46.695Z,3.75
2022-09-06T15:14:17.767Z,3.67
2022-09-06T15:16:48.227Z,4.90
2022-09-06T15:19:17.953Z,3.80
2022-09-06T15:21:47.750Z,4.97
2022-09-06T15:24:16.358Z,4.07
2022-09-06T15:26:45.142Z,4.72
2022-09-06T15:29:14.748Z,6.95
2022-09-06T15:31:48.242Z,7.85
2022-09-06T15:34:16.651Z,5.45
2022-09-06T15:36:44.954Z,4.50
2022-09-06T15:39:15.069Z,5.15
2022-09-06T15:41:43.159Z,6.50
2022-09-06T15:44:14.162Z,6.55
2022-09-06T15:46:49.980Z,9.40
2022-09-06T15:49:26.994Z,15.18
2022-09-06T15:51:56.973Z,11.93
2022-09-06T15:54:40.474Z,7.60
2022-09-06T15:57:08.736Z,8.35
2022-09-06T15:59:36.857Z,6.40
2022-09-06T16:02:05.272Z,6.20
2022-09-06T16:04:33.545Z,6.43
2022-09-06T16:07:01.674Z,8.63
2022-09-06T16:09:31.237Z,11.10
2022-09-06T16:11:59.370Z,7.63
2022-09-06T16:14:28.126Z,8.65
2022-09-06T16:16:57.404Z,11.10
2022-09-06T16:19:26.629Z,7.15
2022-09-06T16:21:54.894Z,8.15
2022-09-06T16:24:23.044Z,12.07
2022-09-06T16:26:52.473Z,7.97
2022-09-06T16:29:21.687Z,9.30
2022-09-06T16:31:50.614Z,8.73
2022-09-06T16:34:18.981Z,8.48
2022-09-06T16:36:47.065Z,10.57
2022-09-06T16:39:15.290Z,10.23
2022-09-06T16:41:46.230Z,12.32
2022-09-06T16:44:20.187Z,7.10
2022-09-06T16:46:51.227Z,7.50
2022-09-06T16:49:20.264Z,9.27
2022-09-06T16:51:50.415Z,8.95
2022-09-06T16:54:19.362Z,11.48
2022-09-06T16:56:47.633Z,10.80
2022-09-06T16:59:17.369Z,7.47
2022-09-06T17:01:46.105Z,12.38
2022-09-06T17:04:15.048Z,7.15
2022-09-06T17:06:45.638Z,12.70
2022-09-06T17:09:16.549Z,8.85
2022-09-06T17:11:44.898Z,8.07
2022-09-06T17:14:13.081Z,7.50
2022-09-06T17:17:00.143Z,10.23
2022-09-06T17:19:29.662Z,11.00
2022-09-06T17:21:58.065Z,8.10
2022-09-06T17:24:26.762Z,12.02
2022-09-06T17:26:55.133Z,9.48
2022-09-06T17:29:28.066Z,10.95
2022-09-06T17:31:57.582Z,9.90
2022-09-06T17:34:26.005Z,9.85
2022-09-06T17:36:54.458Z,10.50
2022-09-06T17:39:22.987Z,11.93
2022-09-06T17:41:54.283Z,10.13
2022-09-06T17:44:25.344Z,12.65
2022-09-06T17:47:11.855Z,12.23
2022-09-06T17:49:42.555Z,15.57
2022-09-06T17:52:10.745Z,9.70
2022-09-06T17:54:38.851Z,15.75
2022-09-06T17:57:06.951Z,13.65
2022-09-06T17:59:36.134Z,11.43
2022-09-06T18:02:05.331Z,11.75
2022-09-06T18:04:33.684Z,12.20
2022-09-06T18:07:03.350Z,14.55
2022-09-06T18:09:31.438Z,9.15
2022-09-06T18:11:59.521Z,11.20
2022-09-06T18:14:28.564Z,8.02
2022-09-06T18:16:57.188Z,9.70
2022-09-06T18:19:26.863Z,11.30
2022-09-06T18:21:57.505Z,9.73
2022-09-06T18:24:27.138Z,11.07
2022-09-06T18:26:55.364Z,15.07
2022-09-06T18:29:23.760Z,10.38
2022-09-06T18:31:53.566Z,9.32
2022-09-06T18:34:22.210Z,10.30
2022-09-06T18:36:50.488Z,13.63
2022-09-06T18:39:19.016Z,10.13
2022-09-06T18:42:07.075Z,12.82
2022-09-06T18:44:38.154Z,10.95
2022-09-06T18:47:08.758Z,12.23
2022-09-06T18:49:41.823Z,12.60
2022-09-06T18:52:12.288Z,9.93
2022-09-06T18:54:40.388Z,9.48
2022-09-06T18:57:09.902Z,9.95
2022-09-06T18:59:38.026Z,9.48
2022-09-06T19:02:06.503Z,11.05
2022-09-06T19:04:34.716Z,10.65
2022-09-06T19:07:03.878Z,10.20
2022-09-06T19:09:31.967Z,9.43
2022-09-06T19:12:00.253Z,12.68
2022-09-06T19:14:29.767Z,9.93
2022-09-06T19:16:57.829Z,9.73
2022-09-06T19:19:26.226Z,10.95
2022-09-06T19:21:54.361Z,9.02
2022-09-06T19:24:24.566Z,10.32
2022-09-06T19:26:55.240Z,9.02
2022-09-06T19:29:23.696Z,9.52
2022-09-06T19:31:54.376Z,8.48
2022-09-06T19:34:23.167Z,9.02
2022-09-06T19:36:55.159Z,8.27
2022-09-06T19:39:24.932Z,8.63
2022-09-06T19:41:53.168Z,11.32
2022-09-06T19:44:22.191Z,7.43
2022-09-06T19:46:51.980Z,8.48
2022-09-06T19:49:20.751Z,12.88
2022-09-06T19:51:50.840Z,8.35
2022-09-06T19:54:19.481Z,9.23
2022-09-06T19:56:48.029Z,8.43
2022-09-06T19:59:17.663Z,9.52
2022-09-06T20:01:47.736Z,8.20
2022-09-06T20:04:17.640Z,8.90
2022-09-06T20:06:46.484Z,8.98
2022-09-06T20:09:15.866Z,10.77
2022-09-06T20:11:44.157Z,17.63
2022-09-06T20:14:14.326Z,11.55
2022-09-06T20:16:43.428Z,13.50
2022-09-06T20:19:14.499Z,12.05
2022-09-06T20:21:44.467Z,12.85
2022-09-06T20:24:12.755Z,10.95
2022-09-06T20:26:41.360Z,9.15
2022-09-06T20:29:09.910Z,8.60
2022-09-06T20:31:39.161Z,13.05
2022-09-06T20:34:08.119Z,12.60
2022-09-06T20:36:36.553Z,13.90
2022-09-06T20:39:06.206Z,17.83
2022-09-06T20:41:34.815Z,26.63
2022-09-06T20:44:03.690Z,24.23
2022-09-06T20:46:35.073Z,19.57
2022-09-06T20:49:04.754Z,18.30
2022-09-06T20:51:35.180Z,14.17
2022-09-06T20:54:06.363Z,10.97
2022-09-06T20:56:38.574Z,9.70
2022-09-06T20:59:09.720Z,15.90
2022-09-06T21:01:41.510Z,24.33
2022-09-06T21:04:11.977Z,18.17
2022-09-06T21:06:41.553Z,25.47
2022-09-06T21:09:13.980Z,13.70
2022-09-06T21:11:43.182Z,10.50
2022-09-06T21:14:12.517Z,11.60
2022-09-06T21:16:41.569Z,11.37
2022-09-06T21:19:12.045Z,9.93
2022-09-06T21:21:40.750Z,10.97
2022-09-06T21:24:11.780Z,11.90
2022-09-06T21:26:40.968Z,10.37
2022-09-06T21:29:09.060Z,9.33
2022-09-06T21:31:38.580Z,10.13
2022-09-06T21:34:11.499Z,11.37
2022-09-06T21:36:43.545Z,12.57
2022-09-06T21:39:13.917Z,11.67
2022-09-06T21:41:44.277Z,10.73
2022-09-06T21:44:13.213Z,11.57
2022-09-06T21:46:41.747Z,12.03
2022-09-06T21:49:12.868Z,10.43
2022-09-06T21:51:41.983Z,12.73
2022-09-06T21:54:10.236Z,12.60
2022-09-06T21:56:40.492Z,10.37
2022-09-06T21:59:10.016Z,11.60
2022-09-06T22:01:40.645Z,9.63
2022-09-06T22:04:11.484Z,13.60
2022-09-06T22:06:40.538Z,10.70
2022-09-06T22:09:11.693Z,10.23
2022-09-06T22:11:44.263Z,12.00
2022-09-06T22:14:15.166Z,10.90
2022-09-06T22:16:43.331Z,9.97
2022-09-06T22:19:12.236Z,9.90
2022-09-06T22:21:40.784Z,10.27
2022-09-06T22:24:11.396Z,9.50
2022-09-06T22:26:42.300Z,15.47
2022-09-06T22:29:13.393Z,9.70
2022-09-06T22:31:42.038Z,11.03
2022-09-06T22:34:10.592Z,10.50
2022-09-06T22:36:38.705Z,10.77
2022-09-06T22:39:06.971Z,10.13
2022-09-06T22:41:36.524Z,11.03
2022-09-06T22:44:06.860Z,10.73
2022-09-06T22:46:35.690Z,14.70
2022-09-06T22:49:05.448Z,12.20
2022-09-06T22:51:33.936Z,16.40
2022-09-06T22:54:02.265Z,13.27
2022-09-06T22:56:30.478Z,10.43
2022-09-06T22:59:00.120Z,11.70
2022-09-06T23:01:31.077Z,16.67
2022-09-06T23:03:59.498Z,14.40
2022-09-06T23:06:27.734Z,19.60
2022-09-06T23:08:55.866Z,18.10
2022-09-06T23:11:24.023Z,12.17
2022-09-06T23:13:56.969Z,12.13
2022-09-06T23:16:26.078Z,11.03
2022-09-06T23:18:57.624Z,11.77
2022-09-06T23:21:27.442Z,9.17
2022-09-06T23:23:57.352Z,9.00
2022-09-06T23:26:29.364Z,8.77
2022-09-06T23:28:57.766Z,9.70
2022-09-06T23:31:29.209Z,13.27
2022-09-06T23:34:01.282Z,10.80
2022-09-06T23:36:29.996Z,10.10
2022-09-06T23:38:58.595Z,11.20
2022-09-06T23:41:27.072Z,14.77
2022-09-06T23:43:55.299Z,14.93
2022-09-06T23:46:23.541Z,14.80
2022-09-06T23:48:51.724Z,11.00
2022-09-06T23:51:21.155Z,13.70
2022-09-06T23:53:49.298Z,10.77
2022-09-06T23:56:17.373Z,11.53
2022-09-06T23:58:45.486Z,10.47
